Time;durP1;ratioP1;P1;durP2;ratioP2;P2;SDS_P1;SDS_P2;PMS_P1;PMS_P2;Temp;Humidity;BMP_temperature;BMP_pressure;BME280_temperature;BME280_humidity;BME280_pressure;Samples;Min_cycle;Max_cycle;Signal;HPM_P1;HPM_P2
2024/02/27 00:03:51;;;;;;;10.32;8.43;;;;;;;;;;12500007;23;20031;-75
2024/02/27 00:08:54;;;;;;;13.23;7.93;;;;;;;;;;12499548;23;20031;-75
2024/02/27 00:13:58;;;;;;;16.98;11.93;;;;;;;;;;12480973;23;20103;-74
2024/02/27 00:19:02;;;;;;;15.55;11.05;;;;;;;;;;12498561;23;20471;-74
2024/02/27 00:24:06;;;;;;;13.85;10.02;;;;;;;;;;12499300;23;20027;-74
2024/02/27 00:29:10;;;;;;;14.07;10.50;;;;;;;;;;12482024;23;20517;-74
2024/02/27 00:34:16;;;;;;;13.02;9.55;;;;;;;;;;12482361;23;20134;-74
2024/02/27 00:39:19;;;;;;;13.00;9.45;;;;;;;;;;12483563;23;20141;-74
2024/02/27 00:44:23;;;;;;;11.27;8.35;;;;;;;;;;12496548;23;20031;-74
2024/02/27 00:49:28;;;;;;;10.55;8.43;;;;;;;;;;12482703;23;20027;-74
2024/02/27 00:54:32;;;;;;;9.53;6.93;;;;;;;;;;12495367;23;20498;-74
2024/02/27 00:59:35;;;;;;;9.32;7.28;;;;;;;;;;12494804;23;20747;-74
2024/02/27 01:04:40;;;;;;;8.88;6.65;;;;;;;;;;12482833;23;20050;-74
2024/02/27 01:09:43;;;;;;;9.60;7.50;;;;;;;;;;12495051;23;20088;-74
2024/02/27 01:14:47;;;;;;;7.50;6.38;;;;;;;;;;12480896;23;20035;-74
2024/02/27 01:19:51;;;;;;;8.68;6.63;;;;;;;;;;12482284;23;20035;-74
2024/02/27 01:24:56;;;;;;;8.77;6.53;;;;;;;;;;12482437;23;20213;-74
2024/02/27 01:29:59;;;;;;;8.63;6.75;;;;;;;;;;12493724;23;20019;-74
2024/02/27 01:35:05;;;;;;;9.95;7.10;;;;;;;;;;12493555;23;20023;-75
2024/02/27 01:40:10;;;;;;;9.17;7.57;;;;;;;;;;12493223;23;20050;-74
2024/02/27 01:45:21;;;;;;;13.20;9.35;;;;;;;;;;12492640;23;20031;-74
2024/02/27 01:50:26;;;;;;;14.05;9.75;;;;;;;;;;12491196;23;20032;-74
2024/02/27 01:55:29;;;;;;;12.77;8.20;;;;;;;;;;12480074;23;20031;-74
2024/02/27 02:00:33;;;;;;;11.65;7.75;;;;;;;;;;12480074;23;20087;-74
2024/02/27 02:05:38;;;;;;;10.65;7.88;;;;;;;;;;12491236;23;20049;-74
2024/02/27 02:10:42;;;;;;;12.70;8.35;;;;;;;;;;12482174;23;20027;-74
2024/02/27 02:15:45;;;;;;;12.70;9.50;;;;;;;;;;12489769;23;20035;-74
2024/02/27 02:20:50;;;;;;;12.77;9.15;;;;;;;;;;12488920;23;20031;-74
2024/02/27 02:25:53;;;;;;;10.55;8.38;;;;;;;;;;12489229;23;20027;-74
2024/02/27 02:30:57;;;;;;;11.88;7.97;;;;;;;;;;12489025;23;20039;-74
2024/02/27 02:36:02;;;;;;;10.50;7.10;;;;;;;;;;12479660;23;20023;-74
2024/02/27 02:41:06;;;;;;;12.13;8.20;;;;;;;;;;12476620;23;20551;-75
2024/02/27 02:46:09;;;;;;;10.48;7.25;;;;;;;;;;12491933;23;20083;-75
2024/02/27 02:51:14;;;;;;;14.75;9.07;;;;;;;;;;12491380;23;20027;-74
2024/02/27 02:56:17;;;;;;;15.50;9.70;;;;;;;;;;12481406;23;20035;-74
2024/02/27 03:01:21;;;;;;;12.18;8.40;;;;;;;;;;12479726;23;20024;-74
2024/02/27 03:06:25;;;;;;;9.80;7.00;;;;;;;;;;12478955;23;20060;-74
2024/02/27 03:11:29;;;;;;;12.05;8.73;;;;;;;;;;12501978;23;20034;-74
2024/02/27 03:16:32;;;;;;;12.40;8.82;;;;;;;;;;12485388;23;20027;-74
2024/02/27 03:21:38;;;;;;;16.10;10.43;;;;;;;;;;12485497;23;20031;-74
2024/02/27 03:26:42;;;;;;;14.80;10.68;;;;;;;;;;12480266;23;20523;-74
2024/02/27 03:31:45;;;;;;;13.02;8.98;;;;;;;;;;12480780;23;20698;-74
2024/02/27 03:36:50;;;;;;;9.80;7.05;;;;;;;;;;12480499;23;20079;-74
2024/02/27 03:41:53;;;;;;;10.18;7.13;;;;;;;;;;12482037;23;20027;-74
2024/02/27 03:46:57;;;;;;;9.43;7.25;;;;;;;;;;12484414;23;20027;-74
2024/02/27 03:52:02;;;;;;;8.68;6.00;;;;;;;;;;12484307;23;20079;-74
2024/02/27 03:57:06;;;;;;;8.00;6.15;;;;;;;;;;12482196;23;20031;-74
2024/02/27 04:02:09;;;;;;;11.70;7.00;;;;;;;;;;12486556;23;20033;-74
2024/02/27 04:07:14;;;;;;;11.25;7.57;;;;;;;;;;12480218;23;20020;-75
2024/02/27 04:12:17;;;;;;;8.05;5.90;;;;;;;;;;12483124;23;20023;-74
2024/02/27 04:17:20;;;;;;;7.28;5.55;;;;;;;;;;12485780;23;20043;-75
2024/02/27 04:22:25;;;;;;;7.50;5.82;;;;;;;;;;12481828;23;20088;-74
2024/02/27 04:27:29;;;;;;;9.82;5.60;;;;;;;;;;12473500;23;20086;-74
2024/02/27 04:32:33;;;;;;;7.43;5.45;;;;;;;;;;12481238;23;20023;-74
2024/02/27 04:37:37;;;;;;;6.60;4.55;;;;;;;;;;12481777;23;20276;-74
2024/02/27 04:42:41;;;;;;;7.00;5.18;;;;;;;;;;12480415;23;20475;-74
2024/02/27 04:47:45;;;;;;;8.50;5.95;;;;;;;;;;12483145;23;20083;-74
2024/02/27 04:52:49;;;;;;;7.90;5.72;;;;;;;;;;12481206;23;20087;-74
2024/02/27 04:57:53;;;;;;;10.43;6.80;;;;;;;;;;12480497;23;20046;-74
2024/02/27 05:02:57;;;;;;;9.85;6.82;;;;;;;;;;12480353;23;20023;-74
2024/02/27 05:08:01;;;;;;;9.05;6.40;;;;;;;;;;12482738;23;20031;-74
2024/02/27 05:13:05;;;;;;;8.73;6.03;;;;;;;;;;12498140;23;20023;-74
2024/02/27 05:18:08;;;;;;;9.02;5.68;;;;;;;;;;12483463;23;20053;-74
2024/02/27 05:23:14;;;;;;;7.90;5.25;;;;;;;;;;12482152;23;20023;-74
2024/02/27 05:28:18;;;;;;;9.60;5.75;;;;;;;;;;12500614;23;20050;-74
2024/02/27 05:33:21;;;;;;;8.35;5.63;;;;;;;;;;12498857;23;20519;-74
2024/02/27 05:38:26;;;;;;;8.48;5.95;;;;;;;;;;12498531;23;20408;-74
2024/02/27 05:43:30;;;;;;;7.90;5.97;;;;;;;;;;12497126;23;20024;-74
2024/02/27 05:48:33;;;;;;;9.52;5.97;;;;;;;;;;12498005;23;20035;-74
2024/02/27 05:53:38;;;;;;;9.48;6.22;;;;;;;;;;12497761;23;20031;-74
2024/02/27 05:58:42;;;;;;;9.02;6.25;;;;;;;;;;12480674;23;20090;-74
2024/02/27 06:03:45;;;;;;;7.65;5.43;;;;;;;;;;12497039;23;20027;-74
2024/02/27 06:08:50;;;;;;;9.85;5.93;;;;;;;;;;12481246;23;20042;-74
2024/02/27 06:13:53;;;;;;;8.02;5.72;;;;;;;;;;12480150;23;20039;-74
2024/02/27 06:18:56;;;;;;;8.32;5.55;;;;;;;;;;12481916;23;20062;-74
2024/02/27 06:24:01;;;;;;;6.30;4.70;;;;;;;;;;12480787;23;20039;-74
2024/02/27 06:29:05;;;;;;;7.03;4.82;;;;;;;;;;12494445;23;20383;-74
2024/02/27 06:34:08;;;;;;;9.77;6.90;;;;;;;;;;12481195;23;20035;-74
2024/02/27 06:39:13;;;;;;;11.77;8.05;;;;;;;;;;12481629;23;20367;-74
2024/02/27 06:44:17;;;;;;;9.52;6.18;;;;;;;;;;12480005;23;20027;-74
2024/02/27 06:49:20;;;;;;;8.63;6.07;;;;;;;;;;12494019;23;20027;-74
2024/02/27 06:54:25;;;;;;;8.27;6.13;;;;;;;;;;12493347;23;20060;-74
2024/02/27 06:59:29;;;;;;;9.43;6.32;;;;;;;;;;12480122;23;20476;-74
2024/02/27 07:04:33;;;;;;;12.32;8.07;;;;;;;;;;12492549;23;20031;-74
2024/02/27 07:09:37;;;;;;;10.30;6.90;;;;;;;;;;12479453;23;20034;-74
2024/02/27 07:14:41;;;;;;;11.82;8.30;;;;;;;;;;12479200;23;20079;-74
2024/02/27 07:19:45;;;;;;;12.68;8.38;;;;;;;;;;12480464;23;20035;-74
2024/02/27 07:24:51;;;;;;;10.30;7.47;;;;;;;;;;12481901;23;20079;-74
2024/02/27 07:29:54;;;;;;;11.32;7.65;;;;;;;;;;12492486;23;20523;-73
2024/02/27 07:34:57;;;;;;;11.00;7.57;;;;;;;;;;12493896;23;20075;-74
2024/02/27 07:40:03;;;;;;;8.55;5.85;;;;;;;;;;12493037;23;20363;-74
2024/02/27 07:45:07;;;;;;;10.27;6.97;;;;;;;;;;12493627;23;20094;-74
2024/02/27 07:50:10;;;;;;;12.35;8.35;;;;;;;;;;12480369;23;20027;-74
2024/02/27 07:55:15;;;;;;;8.65;6.28;;;;;;;;;;12491683;23;20024;-74
2024/02/27 08:00:19;;;;;;;12.88;8.07;;;;;;;;;;12482746;23;20058;-74
2024/02/27 08:05:25;;;;;;;10.52;6.68;;;;;;;;;;12492965;23;20026;-74
2024/02/27 08:10:30;;;;;;;;;;;;;;;;;;12493509;23;20539;-74
2024/02/27 08:15:33;;;;;;;12.80;7.25;;;;;;;;;;12482375;23;19921;-74
2024/02/27 08:20:37;;;;;;;8.98;6.57;;;;;;;;;;12483067;23;20883;-74
2024/02/27 08:25:41;;;;;;;11.52;6.80;;;;;;;;;;12491505;23;20043;-74
2024/02/27 08:30:44;;;;;;;8.82;5.70;;;;;;;;;;12482524;23;20531;-74
2024/02/27 08:35:48;;;;;;;8.57;5.60;;;;;;;;;;12489725;23;20019;-74
2024/02/27 08:40:53;;;;;;;12.32;7.80;;;;;;;;;;12489786;23;20027;-74
2024/02/27 08:45:56;;;;;;;14.32;9.15;;;;;;;;;;12477480;23;20094;-74
2024/02/27 08:51:00;;;;;;;14.20;10.05;;;;;;;;;;12501439;23;20474;-74
2024/02/27 08:56:06;;;;;;;15.55;9.85;;;;;;;;;;12485457;23;20364;-74
2024/02/27 09:01:10;;;;;;;13.68;7.55;;;;;;;;;;12489458;23;20082;-74
2024/02/27 09:06:14;;;;;;;11.10;8.13;;;;;;;;;;12487380;23;20030;-74
2024/02/27 09:11:18;;;;;;;12.90;8.32;;;;;;;;;;12486802;23;20503;-74
2024/02/27 09:16:22;;;;;;;9.73;6.50;;;;;;;;;;12481062;23;20051;-73
2024/02/27 09:21:25;;;;;;;17.38;9.90;;;;;;;;;;12479831;23;20102;-74
2024/02/27 09:26:29;;;;;;;13.63;9.40;;;;;;;;;;12481618;23;20300;-74
2024/02/27 09:31:33;;;;;;;13.25;8.77;;;;;;;;;;12485694;23;20417;-74
2024/02/27 09:36:36;;;;;;;14.38;9.73;;;;;;;;;;12486436;23;20102;-74
2024/02/27 09:41:53;;;;;;;9.95;7.22;;;;;;;;;;12484837;23;20463;-74
2024/02/27 09:46:57;;;;;;;9.80;7.47;;;;;;;;;;12484977;23;20636;-74
2024/02/27 09:52:03;;;;;;;9.18;5.70;;;;;;;;;;12484021;23;20142;-74
2024/02/27 09:57:08;;;;;;;8.37;6.13;;;;;;;;;;12481738;23;20033;-74
2024/02/27 10:02:13;;;;;;;8.15;5.45;;;;;;;;;;12481762;23;20482;-74
2024/02/27 10:07:19;;;;;;;10.98;7.30;;;;;;;;;;12502705;23;20023;-74
2024/02/27 10:12:24;;;;;;;11.25;5.47;;;;;;;;;;12480858;23;20037;-74
2024/02/27 10:17:28;;;;;;;9.23;6.73;;;;;;;;;;12479707;23;20045;-74
2024/02/27 10:22:32;;;;;;;10.43;6.75;;;;;;;;;;12480592;23;20505;-74
2024/02/27 10:27:37;;;;;;;9.00;6.22;;;;;;;;;;12479556;23;20481;-74
2024/02/27 10:32:41;;;;;;;6.72;4.75;;;;;;;;;;12480151;23;20342;-74
2024/02/27 10:37:46;;;;;;;8.90;5.97;;;;;;;;;;12479589;23;20658;-74
2024/02/27 10:42:51;;;;;;;6.22;4.85;;;;;;;;;;12479924;23;20039;-74
2024/02/27 10:47:54;;;;;;;5.68;4.68;;;;;;;;;;12500237;23;20035;-74
2024/02/27 10:52:59;;;;;;;6.32;4.32;;;;;;;;;;12479455;23;20051;-74
2024/02/27 10:58:04;;;;;;;6.88;5.13;;;;;;;;;;12478851;23;20023;-74
2024/02/27 11:03:10;;;;;;;8.43;4.80;;;;;;;;;;12497426;23;20422;-74
2024/02/27 11:08:15;;;;;;;10.32;5.82;;;;;;;;;;12479364;23;20054;-74
2024/02/27 11:13:21;;;;;;;7.60;4.90;;;;;;;;;;12494359;23;20066;-75
2024/02/27 11:18:29;;;;;;;8.00;5.70;;;;;;;;;;12496020;23;20034;-74
2024/02/27 11:23:33;;;;;;;9.05;4.78;;;;;;;;;;12494866;23;20357;-74
2024/02/27 11:28:40;;;;;;;6.18;4.32;;;;;;;;;;12478105;23;20027;-75
2024/02/27 11:33:46;;;;;;;5.85;3.97;;;;;;;;;;12479747;23;20031;-74
2024/02/27 11:38:51;;;;;;;6.90;4.90;;;;;;;;;;12494721;23;20031;-74
2024/02/27 11:43:57;;;;;;;5.50;4.30;;;;;;;;;;12494047;23;20502;-74
2024/02/27 11:49:01;;;;;;;5.35;4.07;;;;;;;;;;12493434;23;20095;-74
2024/02/27 11:54:08;;;;;;;5.78;4.28;;;;;;;;;;12479214;23;20027;-75
2024/02/27 11:59:13;;;;;;;5.65;3.90;;;;;;;;;;12492163;23;20031;-75
2024/02/27 12:04:18;;;;;;;6.45;4.03;;;;;;;;;;12492836;23;20480;-74
2024/02/27 12:09:25;;;;;;;7.57;4.55;;;;;;;;;;12493775;23;20341;-74
2024/02/27 12:14:30;;;;;;;7.30;4.97;;;;;;;;;;12480001;23;20074;-74
2024/02/27 12:19:34;;;;;;;4.90;3.92;;;;;;;;;;12494727;23;20035;-74
2024/02/27 12:24:37;;;;;;;4.85;3.33;;;;;;;;;;12479303;23;20031;-74
2024/02/27 12:29:42;;;;;;;4.15;3.28;;;;;;;;;;12481842;23;20131;-74
2024/02/27 12:34:48;;;;;;;5.55;3.40;;;;;;;;;;12493750;23;20371;-74
2024/02/27 12:39:51;;;;;;;4.47;3.42;;;;;;;;;;12493011;23;20027;-74
2024/02/27 12:44:56;;;;;;;6.47;3.95;;;;;;;;;;12481105;23;20028;-74
2024/02/27 12:50:00;;;;;;;5.28;3.45;;;;;;;;;;12492019;23;20031;-74
2024/02/27 12:55:05;;;;;;;7.32;3.92;;;;;;;;;;12480586;23;20034;-74
2024/02/27 13:00:11;;;;;;;6.53;3.83;;;;;;;;;;12478700;23;20039;-74
2024/02/27 13:05:15;;;;;;;5.53;3.65;;;;;;;;;;12482108;23;20031;-74
2024/02/27 13:10:19;;;;;;;4.70;3.25;;;;;;;;;;12480135;23;20034;-74
2024/02/27 13:15:24;;;;;;;4.03;2.85;;;;;;;;;;12480882;23;20027;-74
2024/02/27 13:20:29;;;;;;;5.88;3.72;;;;;;;;;;12479146;23;20494;-74
2024/02/27 13:25:33;;;;;;;7.85;3.85;;;;;;;;;;12489472;23;20531;-74
2024/02/27 13:30:38;;;;;;;5.22;3.10;;;;;;;;;;12479847;23;20027;-74
2024/02/27 13:35:41;;;;;;;3.92;3.08;;;;;;;;;;12479334;23;20035;-74
2024/02/27 13:40:46;;;;;;;4.47;3.28;;;;;;;;;;12486452;23;20066;-74
2024/02/27 13:45:51;;;;;;;5.85;3.90;;;;;;;;;;12479603;23;20359;-74
2024/02/27 13:50:57;;;;;;;5.63;3.90;;;;;;;;;;12488596;23;20669;-74
2024/02/27 13:56:00;;;;;;;4.07;3.22;;;;;;;;;;12500076;23;20038;-74
2024/02/27 14:01:05;;;;;;;4.28;3.25;;;;;;;;;;12492184;23;20023;-74
2024/02/27 14:06:08;;;;;;;4.00;3.08;;;;;;;;;;12488542;23;20113;-74
2024/02/27 14:11:12;;;;;;;4.88;3.65;;;;;;;;;;12479322;23;20728;-74
2024/02/27 14:16:17;;;;;;;3.42;2.88;;;;;;;;;;12479955;23;20034;-74
2024/02/27 14:21:21;;;;;;;6.10;3.92;;;;;;;;;;12484610;23;20106;-74
2024/02/27 14:26:24;;;;;;;5.13;3.67;;;;;;;;;;12484564;23;20464;-74
2024/02/27 14:31:31;;;;;;;4.57;3.50;;;;;;;;;;12483866;23;20035;-74
2024/02/27 14:36:35;;;;;;;4.25;2.90;;;;;;;;;;12482254;23;20027;-74
2024/02/27 14:41:38;;;;;;;4.00;2.85;;;;;;;;;;12482871;23;20031;-74
2024/02/27 14:46:44;;;;;;;4.72;3.35;;;;;;;;;;12479404;23;20019;-74
2024/02/27 14:51:52;;;;;;;2.97;2.63;;;;;;;;;;12482186;23;20404;-74
2024/02/27 14:56:56;;;;;;;6.22;3.60;;;;;;;;;;12480675;23;20026;-74
2024/02/27 15:02:01;;;;;;;4.95;3.35;;;;;;;;;;12478760;23;20031;-74
2024/02/27 15:07:06;;;;;;;2.92;2.42;;;;;;;;;;12481016;23;20356;-75
2024/02/27 15:12:10;;;;;;;3.88;2.92;;;;;;;;;;12480200;23;20027;-74
2024/02/27 15:17:15;;;;;;;7.35;3.60;;;;;;;;;;12478317;23;20023;-75
2024/02/27 15:22:18;;;;;;;4.65;3.05;;;;;;;;;;12476859;23;20031;-74
2024/02/27 15:27:22;;;;;;;4.00;3.08;;;;;;;;;;12478344;23;20090;-74
2024/02/27 15:32:27;;;;;;;3.80;2.75;;;;;;;;;;12478461;23;20035;-74
2024/02/27 15:37:31;;;;;;;5.05;3.38;;;;;;;;;;12470933;23;20035;-74
2024/02/27 15:42:35;;;;;;;3.80;2.80;;;;;;;;;;12479628;23;20363;-74
2024/02/27 15:47:40;;;;;;;4.68;3.00;;;;;;;;;;12481929;23;20368;-75
2024/02/27 15:52:43;;;;;;;3.97;3.17;;;;;;;;;;12481373;23;20033;-74
2024/02/27 15:57:47;;;;;;;4.40;2.70;;;;;;;;;;12483576;23;20019;-74
2024/02/27 16:02:59;;;;;;;4.25;2.67;;;;;;;;;;12483692;23;20754;-74
2024/02/27 16:08:03;;;;;;;4.05;2.85;;;;;;;;;;12483974;23;20549;-74
2024/02/27 16:13:07;;;;;;;3.42;2.80;;;;;;;;;;12500939;23;20054;-74
2024/02/27 16:18:12;;;;;;;5.40;3.40;;;;;;;;;;12501497;23;20024;-74
2024/02/27 16:23:15;;;;;;;3.85;2.60;;;;;;;;;;12484384;23;20110;-74
2024/02/27 16:28:19;;;;;;;4.47;2.60;;;;;;;;;;12483355;23;20043;-74
2024/02/27 16:33:24;;;;;;;3.22;2.72;;;;;;;;;;12484457;23;20452;-74
2024/02/27 16:38:27;;;;;;;3.53;2.67;;;;;;;;;;12481896;23;20051;-74
2024/02/27 16:43:31;;;;;;;4.65;3.10;;;;;;;;;;12499372;23;20075;-74
2024/02/27 16:48:36;;;;;;;3.58;2.63;;;;;;;;;;12481934;23;20023;-74
2024/02/27 16:53:40;;;;;;;3.08;2.78;;;;;;;;;;12499146;23;20027;-74
2024/02/27 16:58:43;;;;;;;3.65;2.72;;;;;;;;;;12480930;23;20083;-74
2024/02/27 17:03:48;;;;;;;5.57;3.30;;;;;;;;;;12497990;23;20406;-74
2024/02/27 17:08:51;;;;;;;3.08;2.78;;;;;;;;;;12499734;23;20027;-74
2024/02/27 17:13:55;;;;;;;3.97;3.10;;;;;;;;;;12497334;23;20027;-74
2024/02/27 17:18:59;;;;;;;3.67;2.97;;;;;;;;;;12481872;23;20093;-74
2024/02/27 17:24:05;;;;;;;3.83;2.47;;;;;;;;;;12484504;23;20033;-74
2024/02/27 17:29:08;;;;;;;3.42;2.20;;;;;;;;;;12497910;23;20031;-74
2024/02/27 17:34:13;;;;;;;3.85;2.80;;;;;;;;;;12483530;23;20034;-74
2024/02/27 17:39:17;;;;;;;3.78;2.85;;;;;;;;;;12496873;23;20035;-74
2024/02/27 17:44:22;;;;;;;4.47;3.65;;;;;;;;;;12483318;23;20395;-74
2024/02/27 17:49:27;;;;;;;5.53;3.53;;;;;;;;;;12496292;23;20023;-74
2024/02/27 17:54:32;;;;;;;4.28;3.72;;;;;;;;;;12478643;23;20176;-74
2024/02/27 17:59:40;;;;;;;5.75;4.30;;;;;;;;;;12492600;23;20035;-74
2024/02/27 18:05:18;;;;;;;6.72;4.10;;;;;;;;;;12477838;23;20111;-74
2024/02/27 18:11:30;;;;;;;4.78;3.20;;;;;;;;;;12463304;23;20038;-74
2024/02/27 18:16:38;;;;;;;4.25;3.42;;;;;;;;;;12467458;23;20027;-74
2024/02/27 18:21:44;;;;;;;7.43;4.50;;;;;;;;;;12470916;23;20027;-74
2024/02/27 18:26:47;;;;;;;5.65;4.50;;;;;;;;;;12481067;23;20034;-74
2024/02/27 18:31:53;;;;;;;8.32;5.32;;;;;;;;;;12481614;23;20027;-74
2024/02/27 18:36:58;;;;;;;8.52;5.80;;;;;;;;;;12479339;23;20034;-74
2024/02/27 18:42:03;;;;;;;7.40;5.03;;;;;;;;;;12480588;23;20038;-74
2024/02/27 18:47:17;;;;;;;9.68;7.13;;;;;;;;;;12484910;23;20079;-74
2024/02/27 18:52:29;;;;;;;10.57;7.17;;;;;;;;;;12484200;23;20023;-74
2024/02/27 18:57:41;;;;;;;10.10;7.53;;;;;;;;;;12483288;23;20451;-74
2024/02/27 19:03:27;;;;;;;12.02;7.72;;;;;;;;;;12447838;23;20022;-74
2024/02/27 19:09:29;;;;;;;9.68;7.30;;;;;;;;;;12497723;23;20083;-74
2024/02/27 19:21:01;;;;;;;10.80;7.72;;;;;;;;;;12479278;23;20023;-74
2024/02/27 19:26:41;;;;;;;10.07;8.15;;;;;;;;;;12480949;23;20027;-74
2024/02/27 19:32:13;;;;;;;10.32;7.93;;;;;;;;;;12450966;23;20340;-74
2024/02/27 19:38:21;;;;;;;;;;;;;;;;;;;;;
2024/02/27 19:45:06;;;;;;;12.80;9.48;;;;;;;;;;12442689;23;20036;-74
2024/02/27 19:50:39;;;;;;;15.35;9.57;;;;;;;;;;12402177;23;20020;-74
2024/02/27 20:08:38;;;;;;;17.50;12.63;;;;;;;;;;12369644;23;20015;-82
2024/02/27 20:13:42;;;;;;;19.02;13.20;;;;;;;;;;12479616;23;20025;-82
2024/02/27 20:18:45;;;;;;;25.67;17.00;;;;;;;;;;12475801;23;20640;-81
2024/02/27 20:23:50;;;;;;;23.08;15.98;;;;;;;;;;12478197;23;20552;-82
2024/02/27 20:28:55;;;;;;;24.00;16.55;;;;;;;;;;12476290;23;20036;-81
2024/02/27 20:34:00;;;;;;;18.77;13.50;;;;;;;;;;12476242;23;20023;-81
2024/02/27 20:39:07;;;;;;;20.98;14.73;;;;;;;;;;12493290;23;20020;-82
2024/02/27 20:44:11;;;;;;;20.38;14.30;;;;;;;;;;12477549;23;20030;-81
2024/02/27 20:49:14;;;;;;;18.73;13.07;;;;;;;;;;12495327;23;20143;-82
2024/02/27 20:54:19;;;;;;;20.52;13.75;;;;;;;;;;12477806;23;20042;-82
2024/02/27 20:59:23;;;;;;;23.40;16.90;;;;;;;;;;12495069;23;20045;-82
2024/02/27 21:04:27;;;;;;;24.05;17.10;;;;;;;;;;12484872;23;20023;-82
2024/02/27 21:09:31;;;;;;;18.30;13.35;;;;;;;;;;12483099;23;20055;-82
2024/02/27 21:14:35;;;;;;;24.08;16.10;;;;;;;;;;12482294;23;20023;-82
2024/02/27 21:19:38;;;;;;;19.13;13.40;;;;;;;;;;12484003;23;20042;-82
2024/02/27 21:24:43;;;;;;;18.67;13.50;;;;;;;;;;12485008;23;20065;-82
2024/02/27 21:29:46;;;;;;;19.15;12.68;;;;;;;;;;12484022;23;20055;-81
2024/02/27 21:34:49;;;;;;;19.40;14.13;;;;;;;;;;12484806;23;20035;-82
2024/02/27 21:39:54;;;;;;;22.42;15.10;;;;;;;;;;12469110;23;20015;-81
2024/02/27 21:44:57;;;;;;;20.83;15.57;;;;;;;;;;12481260;23;20023;-81
2024/02/27 21:50:00;;;;;;;23.58;15.38;;;;;;;;;;12461191;23;20115;-81
2024/02/27 21:55:06;;;;;;;22.83;15.80;;;;;;;;;;12469659;23;20030;-82
2024/02/27 22:00:10;;;;;;;22.50;15.55;;;;;;;;;;12470741;23;20043;-81
2024/02/27 22:05:14;;;;;;;26.98;16.52;;;;;;;;;;12472710;23;20106;-81
2024/02/27 22:10:19;;;;;;;24.27;16.00;;;;;;;;;;12471870;23;20031;-80
2024/02/27 22:15:23;;;;;;;23.80;15.65;;;;;;;;;;12469863;23;20154;-81
2024/02/27 22:20:26;;;;;;;25.33;17.05;;;;;;;;;;12470534;23;20023;-81
2024/02/27 22:25:31;;;;;;;26.77;16.52;;;;;;;;;;12471204;23;20490;-81
2024/02/27 22:30:34;;;;;;;27.25;15.80;;;;;;;;;;12474168;23;20023;-81
2024/02/27 22:35:38;;;;;;;22.95;15.30;;;;;;;;;;12472723;23;20027;-81
2024/02/27 22:40:43;;;;;;;24.50;16.00;;;;;;;;;;12479785;23;20023;-81
2024/02/27 22:45:48;;;;;;;24.63;16.63;;;;;;;;;;12481961;23;20050;-81
2024/02/27 22:50:52;;;;;;;25.63;17.00;;;;;;;;;;12469658;23;20043;-82
2024/02/27 22:55:56;;;;;;;25.63;16.88;;;;;;;;;;12468629;23;20482;-81
2024/02/27 23:00:59;;;;;;;26.05;15.85;;;;;;;;;;12472682;23;20054;-81
2024/02/27 23:06:04;;;;;;;25.38;15.55;;;;;;;;;;12487384;23;20027;-82
2024/02/27 23:11:10;;;;;;;24.92;15.85;;;;;;;;;;12487817;23;20028;-82
2024/02/27 23:16:13;;;;;;;24.55;16.25;;;;;;;;;;12525901;23;20023;-75
2024/02/27 23:21:16;;;;;;;25.45;15.70;;;;;;;;;;12489511;23;20083;-74
2024/02/27 23:26:21;;;;;;;23.63;15.57;;;;;;;;;;12480181;23;20023;-74
2024/02/27 23:31:25;;;;;;;23.42;15.40;;;;;;;;;;12479351;23;20030;-75
2024/02/27 23:36:28;;;;;;;25.58;16.33;;;;;;;;;;12484867;23;20035;-75
2024/02/27 23:41:33;;;;;;;20.45;14.48;;;;;;;;;;12484687;23;20027;-74
2024/02/27 23:46:39;;;;;;;24.10;15.65;;;;;;;;;;12485143;23;20592;-75
2024/02/27 23:51:43;;;;;;;26.13;16.50;;;;;;;;;;12484027;23;20028;-74
2024/02/27 23:56:47;;;;;;;22.15;14.55;;;;;;;;;;12484231;23;20023;-75
